createdAt,value
2018-12-20T00:01:25.374Z,9.49
2018-12-20T00:03:53.626Z,9.54
2018-12-20T00:06:21.772Z,9.72
2018-12-20T00:08:49.963Z,9.50
2018-12-20T00:11:19.191Z,10.63
2018-12-20T00:13:47.319Z,9.79
2018-12-20T00:16:15.427Z,9.99
2018-12-20T00:18:43.542Z,10.09
2018-12-20T00:21:11.852Z,10.14
2018-12-20T00:23:39.930Z,10.19
2018-12-20T00:26:08.038Z,10.00
2018-12-20T00:28:36.111Z,10.36
2018-12-20T00:31:04.307Z,10.21
2018-12-20T00:33:32.420Z,10.08
2018-12-20T00:36:00.570Z,9.60
2018-12-20T00:38:28.685Z,9.79
2018-12-20T00:40:56.795Z,9.36
2018-12-20T00:43:26.168Z,9.45
2018-12-20T00:45:54.334Z,10.57
2018-12-20T00:48:22.411Z,10.09
2018-12-20T00:50:51.651Z,10.00
2018-12-20T00:53:19.867Z,10.14
2018-12-20T00:55:47.990Z,10.33
2018-12-20T00:58:16.142Z,10.04
2018-12-20T01:00:44.310Z,10.59
2018-12-20T01:03:12.551Z,10.11
2018-12-20T01:05:40.746Z,10.37
2018-12-20T01:08:09.045Z,9.50
2018-12-20T01:10:37.408Z,9.82
2018-12-20T01:13:05.578Z,10.13
2018-12-20T01:15:33.745Z,9.44
2018-12-20T01:18:01.850Z,9.20
2018-12-20T01:20:30.035Z,9.53
2018-12-20T01:22:58.298Z,9.14
2018-12-20T01:25:26.470Z,8.88
2018-12-20T01:27:54.694Z,8.77
2018-12-20T01:30:22.742Z,9.05
2018-12-20T01:32:50.864Z,9.00
2018-12-20T01:35:19.327Z,9.59
2018-12-20T01:37:47.556Z,8.68
2018-12-20T01:40:15.856Z,8.82
2018-12-20T01:42:44.024Z,9.04
2018-12-20T01:45:12.168Z,9.54
2018-12-20T01:47:40.352Z,9.15
2018-12-20T01:50:08.509Z,9.72
2018-12-20T01:52:36.632Z,9.39
2018-12-20T01:55:04.979Z,9.53
2018-12-20T01:57:33.101Z,9.27
2018-12-20T02:00:01.592Z,9.36
2018-12-20T02:02:29.783Z,8.53
2018-12-20T02:04:57.853Z,9.38
2018-12-20T02:07:25.946Z,8.55
2018-12-20T02:09:53.980Z,9.05
2018-12-20T02:12:22.028Z,9.01
2018-12-20T02:14:50.192Z,9.53
2018-12-20T02:17:18.412Z,9.68
2018-12-20T02:19:46.495Z,8.87
2018-12-20T02:22:14.673Z,9.15
2018-12-20T02:24:43.007Z,9.23
2018-12-20T02:27:11.144Z,9.00
2018-12-20T02:29:39.350Z,8.79
2018-12-20T02:32:07.789Z,8.87
2018-12-20T02:34:35.898Z,9.35
2018-12-20T02:37:04.018Z,9.07
2018-12-20T02:39:32.178Z,9.00
2018-12-20T02:42:00.318Z,8.81
2018-12-20T02:44:28.968Z,9.00
2018-12-20T02:46:57.380Z,9.18
2018-12-20T02:49:25.685Z,9.06
2018-12-20T02:51:53.821Z,8.65
2018-12-20T02:54:21.853Z,9.63
2018-12-20T02:56:50.035Z,9.09
2018-12-20T02:59:18.154Z,8.89
2018-12-20T03:01:46.627Z,9.27
2018-12-20T03:04:14.750Z,8.72
2018-12-20T03:06:42.790Z,8.83
2018-12-20T03:09:10.900Z,8.65
2018-12-20T03:11:39.058Z,8.31
2018-12-20T03:14:07.147Z,8.17
2018-12-20T03:16:35.293Z,8.27
2018-12-20T03:19:03.524Z,8.18
2018-12-20T03:21:31.729Z,8.71
2018-12-20T03:23:59.924Z,8.54
2018-12-20T03:26:27.971Z,8.62
2018-12-20T03:28:56.215Z,8.39
2018-12-20T03:31:24.342Z,8.57
2018-12-20T03:33:52.390Z,8.73
2018-12-20T03:36:20.689Z,8.85
2018-12-20T03:38:48.957Z,8.77
2018-12-20T03:41:17.000Z,8.92
2018-12-20T03:43:45.290Z,9.46
2018-12-20T03:46:13.568Z,9.72
2018-12-20T03:48:41.786Z,9.63
2018-12-20T03:51:09.883Z,8.41
2018-12-20T03:56:19.608Z,8.52
2018-12-20T03:58:47.992Z,8.60
2018-12-20T04:01:17.216Z,9.04
2018-12-20T04:03:45.381Z,8.62
2018-12-20T04:06:13.628Z,8.22
2018-12-20T04:08:41.723Z,7.66
2018-12-20T04:11:10.023Z,8.65
2018-12-20T04:13:38.183Z,8.00
2018-12-20T04:16:06.566Z,8.32
2018-12-20T04:18:34.706Z,8.36
2018-12-20T04:21:02.769Z,8.45
2018-12-20T04:23:30.891Z,8.90
2018-12-20T04:25:58.918Z,8.45
2018-12-20T04:28:27.091Z,8.00
2018-12-20T04:30:55.169Z,8.38
2018-12-20T04:33:23.424Z,9.09
2018-12-20T04:35:51.612Z,8.45
2018-12-20T04:38:19.704Z,8.28
2018-12-20T04:40:47.973Z,8.56
2018-12-20T04:43:16.099Z,8.72
2018-12-20T04:45:46.810Z,8.68
2018-12-20T04:48:15.756Z,8.42
2018-12-20T04:50:45.116Z,8.45
2018-12-20T04:53:13.166Z,8.86
2018-12-20T04:55:41.289Z,8.34
2018-12-20T04:58:09.651Z,8.66
2018-12-20T05:00:37.841Z,8.64
2018-12-20T05:03:06.186Z,9.29
2018-12-20T05:05:34.407Z,8.49
2018-12-20T05:08:02.691Z,8.91
2018-12-20T05:10:31.005Z,8.72
2018-12-20T05:12:59.063Z,9.00
2018-12-20T05:15:27.234Z,8.88
2018-12-20T05:17:55.331Z,9.56
2018-12-20T05:20:23.382Z,9.38
2018-12-20T05:22:51.910Z,9.21
2018-12-20T05:25:20.120Z,8.98
2018-12-20T05:27:48.339Z,8.34
2018-12-20T05:30:16.669Z,9.43
2018-12-20T05:35:26.511Z,10.07
2018-12-20T05:37:55.076Z,10.57
2018-12-20T05:40:23.323Z,9.84
2018-12-20T05:42:51.676Z,9.60
2018-12-20T05:45:19.882Z,9.08
2018-12-20T05:47:48.093Z,9.05
2018-12-20T05:52:57.537Z,8.57
2018-12-20T05:55:26.936Z,9.50
2018-12-20T05:57:55.280Z,9.13
2018-12-20T06:00:23.392Z,8.41
2018-12-20T06:02:51.665Z,8.59
2018-12-20T06:05:19.815Z,9.31
2018-12-20T06:07:47.854Z,8.26
2018-12-20T06:10:16.039Z,8.93
2018-12-20T06:12:44.208Z,8.90
2018-12-20T06:15:12.566Z,8.72
2018-12-20T06:17:40.740Z,8.89
2018-12-20T06:20:08.931Z,8.98
2018-12-20T06:22:37.029Z,8.81
2018-12-20T06:25:05.371Z,8.71
2018-12-20T06:27:33.523Z,8.74
2018-12-20T06:30:01.717Z,8.47
2018-12-20T06:32:29.742Z,9.06
2018-12-20T06:34:57.875Z,9.88
2018-12-20T06:37:25.899Z,8.92
2018-12-20T06:39:53.934Z,9.12
2018-12-20T06:42:21.981Z,9.77
2018-12-20T06:44:50.004Z,9.19
2018-12-20T06:47:18.121Z,8.48
2018-12-20T06:49:46.159Z,8.86
2018-12-20T06:52:14.172Z,8.84
2018-12-20T06:54:42.311Z,8.98
2018-12-20T06:57:10.351Z,8.85
2018-12-20T06:59:38.390Z,9.40
2018-12-20T07:02:06.491Z,10.00
2018-12-20T07:04:34.533Z,9.81
2018-12-20T07:07:02.557Z,9.00
2018-12-20T07:09:30.679Z,9.33
2018-12-20T07:11:58.704Z,8.99
2018-12-20T07:14:26.769Z,9.31
2018-12-20T07:16:54.802Z,9.12
2018-12-20T07:19:22.871Z,9.15
2018-12-20T07:21:50.974Z,9.12
2018-12-20T07:24:19.085Z,8.54
2018-12-20T07:26:47.157Z,8.57
2018-12-20T07:29:15.285Z,8.39
2018-12-20T07:31:43.492Z,8.55
2018-12-20T07:34:11.596Z,7.85
2018-12-20T07:36:39.777Z,8.51
2018-12-20T07:39:08.451Z,8.94
2018-12-20T07:41:36.490Z,8.29
2018-12-20T07:44:04.831Z,8.49
2018-12-20T07:46:37.789Z,8.61
2018-12-20T07:49:03.132Z,8.17
2018-12-20T07:51:31.175Z,7.99
2018-12-20T07:53:59.212Z,8.42
2018-12-20T07:56:27.336Z,8.80
2018-12-20T07:58:55.363Z,8.26
2018-12-20T08:01:23.475Z,9.22
2018-12-20T08:03:51.518Z,9.05
2018-12-20T08:06:19.557Z,8.79
2018-12-20T08:08:47.590Z,8.51
2018-12-20T08:11:16.015Z,8.77
2018-12-20T08:13:44.070Z,9.08
2018-12-20T08:16:12.136Z,8.30
2018-12-20T08:18:40.225Z,8.14
2018-12-20T08:21:08.748Z,8.61
2018-12-20T08:23:36.874Z,8.47
2018-12-20T08:26:04.907Z,8.68
2018-12-20T08:28:32.979Z,8.38
2018-12-20T08:31:01.109Z,8.67
2018-12-20T08:33:29.158Z,8.73
2018-12-20T08:35:57.206Z,8.57
2018-12-20T08:38:25.242Z,8.68
2018-12-20T08:40:53.343Z,8.45
2018-12-20T08:43:21.386Z,8.68
2018-12-20T08:45:49.494Z,8.96
2018-12-20T08:48:17.590Z,8.76
2018-12-20T08:50:45.630Z,9.15
2018-12-20T08:55:40.890Z,8.80
2018-12-20T08:58:08.907Z,8.25
2018-12-20T09:00:36.985Z,8.50
2018-12-20T09:03:05.046Z,8.42
2018-12-20T09:05:33.202Z,8.51
2018-12-20T09:08:02.314Z,8.56
2018-12-20T09:10:30.442Z,8.92
2018-12-20T09:12:58.480Z,9.20
2018-12-20T09:15:26.635Z,8.90
2018-12-20T09:17:54.706Z,8.97
2018-12-20T09:20:22.818Z,9.46
2018-12-20T09:22:50.859Z,8.84
2018-12-20T09:25:18.987Z,8.63
2018-12-20T09:27:47.068Z,9.29
2018-12-20T09:30:15.384Z,9.42
2018-12-20T09:32:43.462Z,8.92
2018-12-20T09:35:11.518Z,9.39
2018-12-20T09:37:39.638Z,9.41
2018-12-20T09:40:07.859Z,9.43
2018-12-20T09:42:36.905Z,9.54
2018-12-20T09:45:05.345Z,9.36
2018-12-20T09:47:38.720Z,9.52
2018-12-20T09:50:07.387Z,8.89
2018-12-20T09:52:35.479Z,9.23
2018-12-20T09:55:03.599Z,9.52
2018-12-20T09:57:33.326Z,9.34
2018-12-20T10:00:01.505Z,9.42
2018-12-20T10:02:29.713Z,9.62
2018-12-20T10:04:57.781Z,9.67
2018-12-20T10:07:25.969Z,9.40
2018-12-20T10:09:54.090Z,9.54
2018-12-20T10:12:22.191Z,9.56
2018-12-20T10:14:50.265Z,9.95
2018-12-20T10:17:20.053Z,10.24
2018-12-20T10:19:48.445Z,9.91
2018-12-20T10:22:16.491Z,9.55
2018-12-20T10:24:44.566Z,9.62
2018-12-20T10:27:12.589Z,9.33
2018-12-20T10:29:40.809Z,9.53
2018-12-20T10:32:08.940Z,9.71
2018-12-20T10:34:37.001Z,10.11
2018-12-20T10:37:05.123Z,10.72
2018-12-20T10:39:33.821Z,10.59
2018-12-20T10:42:02.058Z,10.18
2018-12-20T10:44:30.205Z,10.41
2018-12-20T10:47:02.526Z,10.13
2018-12-20T10:49:30.609Z,9.39
2018-12-20T10:51:58.722Z,10.69
2018-12-20T10:54:26.834Z,10.60
2018-12-20T10:56:54.898Z,9.30
2018-12-20T10:59:22.943Z,9.58
2018-12-20T11:01:55.166Z,9.83
2018-12-20T11:04:30.536Z,9.80
2018-12-20T11:07:04.038Z,10.09
2018-12-20T11:09:37.477Z,9.53
2018-12-20T11:12:08.505Z,9.47
2018-12-20T11:14:37.121Z,10.03
2018-12-20T11:17:05.233Z,9.74
2018-12-20T11:19:33.337Z,9.96
2018-12-20T11:22:01.471Z,9.94
2018-12-20T11:24:29.566Z,10.09
2018-12-20T11:26:57.725Z,9.63
2018-12-20T11:29:25.864Z,10.06
2018-12-20T11:31:54.011Z,10.32
2018-12-20T11:34:22.053Z,9.40
2018-12-20T11:36:50.098Z,9.99
2018-12-20T11:39:18.163Z,10.04
2018-12-20T11:41:46.295Z,9.58
2018-12-20T11:44:14.415Z,10.35
2018-12-20T11:46:42.509Z,10.35
2018-12-20T11:49:10.682Z,10.42
2018-12-20T11:51:38.783Z,10.08
2018-12-20T11:54:06.878Z,10.22
2018-12-20T11:56:34.957Z,10.21
2018-12-20T11:59:03.005Z,10.16
2018-12-20T12:01:32.227Z,10.21
2018-12-20T12:04:00.357Z,10.04
2018-12-20T12:06:28.415Z,10.09
2018-12-20T12:08:56.489Z,10.36
2018-12-20T12:11:24.563Z,10.52
2018-12-20T12:13:52.598Z,10.60
2018-12-20T12:16:20.732Z,9.90
2018-12-20T12:18:48.788Z,10.53
2018-12-20T12:21:16.926Z,10.52
2018-12-20T12:23:44.977Z,10.56
2018-12-20T12:26:13.075Z,10.76
2018-12-20T12:28:41.137Z,11.09
2018-12-20T12:31:09.197Z,11.11
2018-12-20T12:33:37.254Z,10.54
2018-12-20T12:36:05.404Z,10.36
2018-12-20T12:38:33.453Z,10.75
2018-12-20T12:41:01.513Z,10.16
2018-12-20T12:43:29.637Z,11.19
2018-12-20T12:45:57.689Z,11.18
2018-12-20T12:48:25.761Z,10.32
2018-12-20T12:50:53.825Z,10.59
2018-12-20T12:53:21.873Z,11.29
2018-12-20T12:55:50.010Z,11.26
2018-12-20T12:58:18.124Z,9.92
2018-12-20T13:00:46.275Z,10.76
2018-12-20T13:03:14.544Z,11.15
2018-12-20T13:05:42.589Z,11.40
2018-12-20T13:08:10.650Z,10.89
2018-12-20T13:10:38.772Z,9.87
2018-12-20T13:13:06.858Z,10.16
2018-12-20T13:15:34.898Z,10.53
2018-12-20T13:18:06.116Z,9.69
2018-12-20T13:20:33.177Z,10.39
2018-12-20T13:23:01.221Z,10.55
2018-12-20T13:25:29.350Z,9.70
2018-12-20T13:27:57.406Z,10.40
2018-12-20T13:30:25.469Z,10.20
2018-12-20T13:32:53.512Z,10.46
2018-12-20T13:35:21.637Z,9.97
2018-12-20T13:37:49.679Z,10.74
2018-12-20T13:40:17.913Z,10.09
2018-12-20T13:42:46.004Z,10.88
2018-12-20T13:45:14.061Z,11.09
2018-12-20T13:47:42.153Z,10.51
2018-12-20T13:50:10.310Z,11.23
2018-12-20T13:52:38.368Z,10.58
2018-12-20T13:55:06.580Z,9.89
2018-12-20T13:57:34.691Z,9.87
2018-12-20T14:00:02.860Z,10.39
2018-12-20T14:02:30.988Z,10.23
2018-12-20T14:04:59.111Z,9.41
2018-12-20T14:07:27.504Z,8.95
2018-12-20T14:09:55.692Z,9.15
2018-12-20T14:12:23.750Z,9.54
2018-12-20T14:14:51.842Z,9.45
2018-12-20T14:17:19.998Z,9.96
2018-12-20T14:19:48.052Z,10.52
2018-12-20T14:22:16.188Z,10.38
2018-12-20T14:24:44.325Z,10.44
2018-12-20T14:27:12.637Z,9.89
2018-12-20T14:29:40.733Z,10.20
2018-12-20T14:32:08.797Z,10.73
2018-12-20T14:34:36.850Z,10.77
2018-12-20T14:37:05.057Z,10.45
2018-12-20T14:39:33.102Z,10.45
2018-12-20T14:42:01.173Z,9.83
2018-12-20T14:44:29.226Z,9.37
2018-12-20T14:46:57.337Z,9.94
2018-12-20T14:49:25.485Z,9.64
2018-12-20T14:51:53.517Z,10.10
2018-12-20T14:54:21.634Z,9.87
2018-12-20T14:56:49.816Z,9.04
2018-12-20T14:59:17.879Z,10.18
2018-12-20T15:01:45.928Z,9.02
2018-12-20T15:04:13.988Z,8.93
2018-12-20T15:06:42.070Z,9.03
2018-12-20T15:09:10.229Z,9.15
2018-12-20T15:11:38.251Z,9.22
2018-12-20T15:14:06.301Z,9.63
2018-12-20T15:16:34.390Z,8.85
2018-12-20T15:19:02.446Z,9.12
2018-12-20T15:21:30.546Z,8.93
2018-12-20T15:23:58.638Z,9.26
2018-12-20T15:26:26.698Z,9.43
2018-12-20T15:28:54.736Z,9.82
2018-12-20T15:31:22.848Z,8.66
2018-12-20T15:33:50.973Z,9.26
2018-12-20T15:36:19.076Z,8.83
2018-12-20T15:38:47.111Z,8.90
2018-12-20T15:41:15.508Z,9.48
2018-12-20T15:43:43.619Z,8.90
2018-12-20T15:46:11.750Z,8.71
2018-12-20T15:48:39.796Z,9.20
2018-12-20T15:51:07.918Z,8.20
2018-12-20T15:53:36.012Z,8.70
2018-12-20T15:56:04.149Z,9.07
2018-12-20T15:58:32.191Z,8.54
2018-12-20T16:01:00.261Z,8.62
2018-12-20T16:03:28.315Z,8.60
2018-12-20T16:05:56.347Z,8.77
2018-12-20T16:10:58.741Z,8.94
2018-12-20T16:13:26.768Z,9.05
2018-12-20T16:15:54.926Z,8.83
2018-12-20T16:18:24.089Z,8.82
2018-12-20T16:20:52.117Z,8.97
2018-12-20T16:23:20.159Z,8.24
2018-12-20T16:25:48.344Z,8.44
2018-12-20T16:28:16.438Z,9.08
2018-12-20T16:30:44.541Z,8.94
2018-12-20T16:33:12.634Z,8.90
2018-12-20T16:35:40.717Z,8.40
2018-12-20T16:38:08.748Z,9.09
2018-12-20T16:40:36.808Z,8.69
2018-12-20T16:43:04.931Z,8.13
2018-12-20T16:45:32.970Z,8.33
2018-12-20T16:48:01.101Z,8.65
2018-12-20T16:50:29.250Z,9.02
2018-12-20T16:52:57.282Z,8.73
2018-12-20T16:55:25.371Z,8.91
2018-12-20T16:57:53.470Z,9.32
2018-12-20T17:00:21.557Z,9.53
2018-12-20T17:02:49.700Z,8.81
2018-12-20T17:05:17.798Z,8.68
2018-12-20T17:07:45.829Z,9.19
2018-12-20T17:10:13.909Z,8.88
2018-12-20T17:12:42.055Z,8.53
2018-12-20T17:15:10.145Z,8.67
2018-12-20T17:17:38.180Z,8.59
2018-12-20T17:20:07.508Z,9.30
2018-12-20T17:22:35.666Z,8.54
2018-12-20T17:25:03.806Z,8.42
2018-12-20T17:27:31.834Z,8.75
2018-12-20T17:29:59.887Z,8.59
2018-12-20T17:32:27.980Z,8.94
2018-12-20T17:34:56.026Z,8.68
2018-12-20T17:37:24.288Z,8.44
2018-12-20T17:39:52.316Z,8.80
2018-12-20T17:42:20.336Z,9.49
2018-12-20T17:44:51.476Z,8.96
2018-12-20T17:47:19.577Z,9.75
2018-12-20T17:49:47.733Z,9.31
2018-12-20T17:52:15.907Z,8.72
2018-12-20T17:54:43.988Z,8.43
2018-12-20T17:57:12.116Z,8.90
2018-12-20T17:59:40.143Z,8.74
2018-12-20T18:02:08.229Z,8.07
2018-12-20T18:04:36.257Z,8.88
2018-12-20T18:07:04.431Z,9.02
2018-12-20T18:09:32.531Z,9.01
2018-12-20T18:12:00.566Z,8.80
2018-12-20T18:14:28.850Z,9.10
2018-12-20T18:16:56.919Z,8.45
2018-12-20T18:19:25.017Z,8.22
2018-12-20T18:21:53.051Z,9.15
2018-12-20T18:24:21.106Z,8.95
2018-12-20T18:26:49.133Z,8.90
2018-12-20T18:29:17.253Z,8.92
2018-12-20T18:31:45.338Z,9.10
2018-12-20T18:34:13.378Z,8.47
2018-12-20T18:36:41.404Z,8.82
2018-12-20T18:39:09.539Z,8.94
2018-12-20T18:41:37.699Z,9.53
2018-12-20T18:44:05.777Z,9.06
2018-12-20T18:46:33.801Z,8.75
2018-12-20T18:49:01.844Z,9.07
2018-12-20T18:51:29.982Z,8.94
2018-12-20T18:53:58.015Z,9.31
2018-12-20T18:56:26.127Z,8.83
2018-12-20T18:58:54.141Z,9.24
2018-12-20T19:01:22.526Z,9.06
2018-12-20T19:03:50.661Z,9.90
2018-12-20T19:06:18.813Z,8.81
2018-12-20T19:08:46.822Z,8.66
2018-12-20T19:11:14.853Z,9.11
2018-12-20T19:13:42.876Z,8.79
2018-12-20T19:16:10.896Z,8.87
2018-12-20T19:18:38.909Z,8.70
2018-12-20T19:21:07.119Z,8.78
2018-12-20T19:23:35.230Z,8.37
2018-12-20T19:26:03.617Z,8.39
2018-12-20T19:28:31.663Z,8.34
2018-12-20T19:30:59.777Z,9.25
2018-12-20T19:33:27.813Z,8.93
2018-12-20T19:35:55.834Z,8.67
2018-12-20T19:38:23.849Z,8.74
2018-12-20T19:40:52.957Z,9.52
2018-12-20T19:43:21.093Z,9.59
2018-12-20T19:45:49.184Z,8.83
2018-12-20T19:48:17.227Z,8.89
2018-12-20T19:50:45.265Z,8.97
2018-12-20T19:53:13.312Z,8.08
2018-12-20T19:55:43.127Z,8.96
2018-12-20T19:58:11.301Z,8.87
2018-12-20T20:00:39.342Z,8.17
2018-12-20T20:03:07.418Z,8.73
2018-12-20T20:05:35.551Z,8.19
2018-12-20T20:08:03.639Z,8.48
2018-12-20T20:10:31.670Z,8.51
2018-12-20T20:12:59.822Z,8.32
2018-12-20T20:15:27.910Z,9.29
2018-12-20T20:17:56.053Z,8.60
2018-12-20T20:20:24.115Z,9.00
2018-12-20T20:22:52.140Z,8.57
2018-12-20T20:25:20.198Z,8.75
2018-12-20T20:27:48.219Z,8.70
2018-12-20T20:30:16.325Z,8.36
2018-12-20T20:32:44.356Z,8.48
2018-12-20T20:35:12.481Z,8.45
2018-12-20T20:37:40.580Z,8.89
2018-12-20T20:40:10.318Z,8.31
2018-12-20T20:42:38.398Z,8.57
2018-12-20T20:45:06.948Z,8.66
2018-12-20T20:47:34.971Z,8.73
2018-12-20T20:50:03.200Z,8.36
2018-12-20T20:52:31.223Z,8.88
2018-12-20T20:54:59.236Z,8.73
2018-12-20T20:57:27.377Z,8.44
2018-12-20T20:59:55.408Z,8.85
2018-12-20T21:02:23.524Z,9.51
2018-12-20T21:04:51.541Z,8.71
2018-12-20T21:07:19.680Z,8.47
2018-12-20T21:09:47.786Z,9.13
2018-12-20T21:12:22.801Z,8.40
2018-12-20T21:14:52.420Z,8.76
2018-12-20T21:17:15.934Z,8.99
2018-12-20T21:19:43.950Z,8.95
2018-12-20T21:22:11.994Z,9.00
2018-12-20T21:24:40.131Z,9.05
2018-12-20T21:27:08.157Z,8.51
2018-12-20T21:29:36.185Z,8.63
2018-12-20T21:32:04.922Z,9.36
2018-12-20T21:34:32.957Z,8.45
2018-12-20T21:37:00.985Z,8.65
2018-12-20T21:39:29.056Z,9.23
2018-12-20T21:41:57.066Z,9.06
2018-12-20T21:44:25.105Z,9.09
2018-12-20T21:46:53.120Z,8.81
2018-12-20T21:49:21.215Z,9.22
2018-12-20T21:51:49.261Z,8.81
2018-12-20T21:54:17.551Z,9.09
2018-12-20T21:56:45.678Z,8.77
2018-12-20T21:59:13.705Z,8.95
2018-12-20T22:01:41.729Z,8.56
2018-12-20T22:04:09.762Z,9.33
2018-12-20T22:06:37.804Z,8.15
2018-12-20T22:09:07.010Z,8.43
2018-12-20T22:11:35.102Z,9.24
2018-12-20T22:14:03.189Z,8.94
2018-12-20T22:16:31.288Z,8.80
2018-12-20T22:18:59.452Z,8.62
2018-12-20T22:21:27.494Z,8.63
2018-12-20T22:23:55.533Z,9.00
2018-12-20T22:26:23.632Z,8.73
2018-12-20T22:28:51.662Z,8.71
2018-12-20T22:31:20.381Z,8.54
2018-12-20T22:33:48.389Z,8.03
2018-12-20T22:36:16.438Z,8.76
2018-12-20T22:38:44.480Z,8.48
2018-12-20T22:41:12.614Z,8.78
2018-12-20T22:43:40.686Z,8.12
2018-12-20T22:46:08.710Z,8.04
2018-12-20T22:48:36.819Z,8.11
2018-12-20T22:51:04.966Z,8.39
2018-12-20T22:53:33.020Z,8.20
2018-12-20T22:56:01.169Z,8.58
2018-12-20T22:58:29.293Z,8.46
2018-12-20T23:00:59.351Z,8.03
2018-12-20T23:03:27.418Z,8.35
2018-12-20T23:05:55.468Z,8.86
2018-12-20T23:08:23.626Z,8.24
2018-12-20T23:10:51.705Z,9.13
2018-12-20T23:13:19.816Z,8.73
2018-12-20T23:15:47.913Z,8.82
2018-12-20T23:18:16.265Z,8.66
2018-12-20T23:20:51.805Z,8.76
2018-12-20T23:23:19.828Z,8.56
2018-12-20T23:25:47.854Z,8.50
2018-12-20T23:28:15.861Z,8.78
2018-12-20T23:30:43.869Z,9.10
2018-12-20T23:33:11.971Z,9.07
2018-12-20T23:35:39.993Z,9.33
2018-12-20T23:40:49.594Z,8.98
2018-12-20T23:43:17.664Z,9.29
2018-12-20T23:45:45.774Z,8.27
2018-12-20T23:48:13.872Z,8.81
2018-12-20T23:50:41.901Z,8.62
2018-12-20T23:53:09.920Z,9.14
2018-12-20T23:55:38.057Z,9.51
2018-12-20T23:58:06.082Z,8.86
